Time;durP1;ratioP1;P1;durP2;ratioP2;P2;SDS_P1;SDS_P2;PMS_P1;PMS_P2;Temp;Humidity;BMP_temperature;BMP_pressure;BME280_temperature;BME280_humidity;BME280_pressure;Samples;Min_cycle;Max_cycle;Signal;HPM_P1;HPM_P2
2022/01/07 00:00:12;;;;;;;10.97;3.27;;;;;;;-2.52;96.15;95771.97;6152012;23;20175;-82
2022/01/07 00:02:38;;;;;;;9.97;3.60;;;;;;;-2.50;96.63;95771.00;6140345;23;20143;-80
2022/01/07 00:05:03;;;;;;;9.63;4.07;;;;;;;-2.52;96.22;95766.88;6138612;23;20188;-82
2022/01/07 00:07:29;;;;;;;7.57;4.17;;;;;;;-2.58;95.97;95766.22;6165902;23;20183;-81
2022/01/07 00:09:54;;;;;;;8.87;4.60;;;;;;;-2.56;96.67;95766.19;6166003;23;20158;-81
2022/01/07 00:12:22;;;;;;;8.30;4.60;;;;;;;-2.62;96.32;95767.25;6166468;23;20151;-81
2022/01/07 00:14:47;;;;;;;10.63;4.43;;;;;;;-2.62;96.06;95767.25;6141499;23;20168;-80
2022/01/07 00:17:13;;;;;;;10.80;4.30;;;;;;;-2.71;96.64;95760.00;6166113;23;20183;-82
2022/01/07 00:19:38;;;;;;;8.63;4.20;;;;;;;-2.65;96.38;95762.31;6116492;23;20166;-80
2022/01/07 00:22:03;;;;;;;9.67;4.00;;;;;;;-2.62;96.25;95756.25;6140633;23;20174;-80
2022/01/07 00:24:29;;;;;;;7.77;4.30;;;;;;;-2.60;95.55;95759.56;6116038;23;20163;-80
2022/01/07 00:26:54;;;;;;;13.60;4.20;;;;;;;-2.65;96.75;95752.13;6139987;23;20216;-80
2022/01/07 00:29:19;;;;;;;6.80;3.50;;;;;;;-2.61;95.42;95746.03;6167533;23;20162;-81
2022/01/07 00:31:44;;;;;;;11.33;4.37;;;;;;;-2.72;95.64;95743.09;6140381;23;20156;-79
2022/01/07 00:34:10;;;;;;;12.23;5.13;;;;;;;-2.80;96.10;95747.66;6167357;23;20219;-80
2022/01/07 00:36:35;;;;;;;11.00;5.13;;;;;;;-2.82;96.33;95739.28;6140563;23;20508;-82
2022/01/07 00:39:01;;;;;;;19.77;9.10;;;;;;;-2.88;96.52;95735.25;6140047;23;20187;-79
2022/01/07 00:41:26;;;;;;;17.90;6.97;;;;;;;-2.86;97.13;95735.19;6140161;23;20230;-81
2022/01/07 00:43:51;;;;;;;11.10;4.83;;;;;;;-2.89;97.04;95738.69;6140757;23;20155;-81
2022/01/07 00:46:19;;;;;;;14.90;4.40;;;;;;;-2.84;97.28;95733.41;6140385;23;20179;-82
2022/01/07 00:48:44;;;;;;;11.37;5.00;;;;;;;-2.88;96.80;95730.19;6116543;23;20160;-82
2022/01/07 00:51:09;;;;;;;5.67;4.03;;;;;;;-2.89;96.89;95722.63;6115213;23;20165;-80
2022/01/07 00:53:37;;;;;;;6.47;4.13;;;;;;;-2.89;96.92;95715.81;6140090;23;20162;-80
2022/01/07 00:56:18;;;;;;;9.47;4.13;;;;;;;-2.92;96.59;95707.47;6108416;23;20159;-83
2022/01/07 00:59:09;;;;;;;9.53;3.70;;;;;;;-2.94;96.82;95710.09;6112795;23;20237;-81
2022/01/07 01:02:24;;;;;;;11.57;4.20;;;;;;;-2.98;97.13;95705.22;6115363;23;20159;-79
2022/01/07 01:40:16;;;;;;;;;;;;;;;;;;;;;
2022/01/07 02:08:55;;;;;;;9.53;3.53;;;;;;;-2.82;95.22;95675.75;5886069;24;20279;-80
2022/01/07 02:11:25;;;;;;;7.13;2.97;;;;;;;-2.81;94.94;95679.94;5881280;24;20174;-80
2022/01/07 02:13:59;;;;;;;10.57;2.77;;;;;;;-2.81;94.36;95682.47;5900214;24;20165;-79
2022/01/07 02:16:26;;;;;;;6.80;2.40;;;;;;;-2.73;94.58;95672.81;5923141;24;20222;-78
2022/01/07 02:18:51;;;;;;;12.83;2.67;;;;;;;-2.74;94.41;95673.72;5889955;24;20300;-82
2022/01/07 02:21:16;;;;;;;7.00;2.90;;;;;;;-2.76;93.85;95675.47;5861991;24;20165;-80
2022/01/07 02:23:42;;;;;;;9.60;3.13;;;;;;;-2.79;94.15;95670.53;5884727;24;20189;-80
2022/01/07 02:26:07;;;;;;;7.17;2.80;;;;;;;-2.79;94.50;95662.91;5883692;24;20225;-81
2022/01/07 02:28:35;;;;;;;6.47;2.70;;;;;;;-2.82;94.39;95657.97;5929325;24;20199;-81
2022/01/07 02:31:00;;;;;;;4.77;2.97;;;;;;;-2.71;94.07;95660.03;5937002;24;20164;-83
2022/01/07 02:33:26;;;;;;;6.60;2.80;;;;;;;-2.78;93.38;95659.47;5959199;24;20371;-82
2022/01/07 02:35:51;;;;;;;7.30;2.70;;;;;;;-2.84;92.96;95657.16;5959376;24;20169;-79
2022/01/07 02:38:17;;;;;;;6.33;3.20;;;;;;;-2.81;93.16;95654.53;5959248;24;20184;-82
2022/01/07 02:40:43;;;;;;;5.13;2.80;;;;;;;-2.86;93.13;95653.88;6072022;23;20156;-80
2022/01/07 02:43:08;;;;;;;8.07;2.53;;;;;;;-2.86;93.49;95664.03;6102504;23;20168;-81
2022/01/07 02:45:35;;;;;;;8.37;2.63;;;;;;;-2.88;93.37;95663.28;6101317;23;20161;-81
2022/01/07 02:48:02;;;;;;;7.13;2.63;;;;;;;-2.90;93.61;95667.63;6077290;23;20181;-81
2022/01/07 02:50:30;;;;;;;6.13;3.00;;;;;;;-2.93;93.27;95658.38;6101572;23;20166;-81
2022/01/07 02:52:56;;;;;;;8.03;3.00;;;;;;;-2.94;93.03;95658.44;6100337;23;20161;-81
2022/01/07 02:55:23;;;;;;;6.30;2.83;;;;;;;-2.97;93.25;95653.50;6100522;23;20168;-81
2022/01/07 02:57:48;;;;;;;5.83;2.60;;;;;;;-2.99;92.48;95650.22;6100795;23;20180;-81
2022/01/07 03:00:16;;;;;;;9.03;2.57;;;;;;;-2.87;91.47;95649.69;6099941;23;20243;-80
2022/01/07 03:02:42;;;;;;;5.57;2.30;;;;;;;-2.81;90.54;95658.78;6099437;23;20161;-80
2022/01/07 03:05:08;;;;;;;3.63;1.80;;;;;;;-2.75;89.95;95656.78;6099658;23;20511;-81
2022/01/07 03:07:34;;;;;;;7.93;2.20;;;;;;;-2.71;89.27;95653.25;6101724;23;20183;-81
2022/01/07 03:09:59;;;;;;;4.67;2.13;;;;;;;-2.68;89.30;95657.34;6100033;23;20159;-79
2022/01/07 03:12:24;;;;;;;3.00;2.10;;;;;;;-2.66;89.16;95656.41;6099600;23;20157;-82
2022/01/07 03:14:50;;;;;;;2.60;1.83;;;;;;;-2.61;88.52;95649.41;6101505;23;20175;-81
2022/01/07 03:17:15;;;;;;;6.73;2.00;;;;;;;-2.63;89.00;95650.38;6102171;23;20177;-79
2022/01/07 03:19:40;;;;;;;5.90;2.03;;;;;;;-2.52;87.88;95660.06;6076903;23;20164;-81
2022/01/07 03:22:06;;;;;;;7.43;1.80;;;;;;;-2.61;88.31;95657.03;6100693;23;20152;-81
2022/01/07 03:24:31;;;;;;;5.17;2.10;;;;;;;-2.59;88.42;95652.69;6101511;23;20207;-82
2022/01/07 03:26:56;;;;;;;6.27;1.87;;;;;;;-2.60;88.54;95651.06;6100934;23;20239;-79
2022/01/07 03:29:22;;;;;;;3.90;2.10;;;;;;;-2.64;89.10;95659.72;6100481;23;20161;-80
2022/01/07 03:31:47;;;;;;;6.60;2.27;;;;;;;-2.63;88.03;95658.81;6100163;23;20156;-81
2022/01/07 03:34:12;;;;;;;13.03;2.53;;;;;;;-2.78;89.47;95641.69;6101727;23;20153;-81
2022/01/07 03:36:38;;;;;;;5.30;2.00;;;;;;;-2.80;89.17;95646.00;6125586;23;20183;-80
2022/01/07 03:39:03;;;;;;;5.83;2.43;;;;;;;-2.80;89.43;95632.47;6103125;23;20179;-79
2022/01/07 03:41:29;;;;;;;7.13;2.20;;;;;;;-2.83;90.03;95646.13;6100943;23;20189;-79
2022/01/07 03:43:54;;;;;;;3.80;2.00;;;;;;;-2.86;90.01;95636.09;6077657;23;20164;-80
2022/01/07 03:46:20;;;;;;;7.57;2.20;;;;;;;-2.83;89.92;95630.03;6101934;23;20518;-80
2022/01/07 03:48:45;;;;;;;4.63;2.33;;;;;;;-2.91;90.26;95635.47;6101740;23;20587;-80
2022/01/07 03:51:11;;;;;;;3.57;2.17;;;;;;;-2.92;90.14;95634.63;6101532;23;20172;-79
2022/01/07 03:53:36;;;;;;;5.70;2.27;;;;;;;-2.89;90.04;95636.22;6103438;23;20236;-80
2022/01/07 03:56:02;;;;;;;6.20;2.50;;;;;;;-2.91;89.88;95643.09;6103959;23;20181;-80
2022/01/07 03:58:27;;;;;;;6.77;2.57;;;;;;;-2.89;89.84;95641.31;6101919;23;20181;-80
2022/01/07 04:00:53;;;;;;;8.20;2.43;;;;;;;-2.92;90.65;95637.16;6101240;23;20161;-80
2022/01/07 04:03:18;;;;;;;5.77;2.53;;;;;;;-2.94;90.66;95641.47;6100969;23;20396;-80
2022/01/07 04:05:45;;;;;;;4.87;2.30;;;;;;;-2.96;90.61;95637.38;6102019;23;20168;-80
2022/01/07 04:08:11;;;;;;;6.33;2.60;;;;;;;-2.98;91.10;95634.06;6101417;23;20208;-80
2022/01/07 04:10:37;;;;;;;8.00;3.17;;;;;;;-3.09;91.66;95638.75;6101717;23;20157;-80
2022/01/07 04:13:02;;;;;;;5.63;2.63;;;;;;;-3.07;91.72;95637.00;6101897;23;20168;-78
2022/01/07 04:15:28;;;;;;;6.07;2.70;;;;;;;-3.15;91.93;95643.22;6077173;23;20156;-80
2022/01/07 04:17:54;;;;;;;8.33;2.93;;;;;;;-3.14;91.87;95655.03;6077498;23;20184;-80
2022/01/07 04:20:24;;;;;;;9.17;2.57;;;;;;;-3.15;92.09;95645.75;6102303;23;20161;-79
2022/01/07 04:22:50;;;;;;;6.07;2.47;;;;;;;-3.20;92.78;95640.00;6100645;23;20558;-80
2022/01/07 04:25:17;;;;;;;9.80;2.93;;;;;;;-3.20;92.54;95650.19;6102239;23;20157;-80
2022/01/07 04:27:51;;;;;;;7.83;2.90;;;;;;;-3.27;92.60;95646.25;6101047;23;20180;-80
2022/01/07 04:30:17;;;;;;;6.07;2.67;;;;;;;-3.16;92.27;95641.56;6100555;23;20164;-80
2022/01/07 04:32:43;;;;;;;6.43;3.10;;;;;;;-3.22;92.51;95646.88;6102203;23;20160;-78
2022/01/07 04:35:10;;;;;;;5.13;3.10;;;;;;;-3.24;92.63;95646.13;6103761;23;20189;-82
2022/01/07 04:37:36;;;;;;;7.67;2.87;;;;;;;-3.30;93.81;95650.63;6100762;23;20188;-82
2022/01/07 04:40:03;;;;;;;5.73;2.80;;;;;;;-3.23;93.97;95647.78;6101095;23;20161;-80
2022/01/07 04:42:28;;;;;;;4.30;2.33;;;;;;;-3.03;93.55;95648.66;6100542;23;20175;-80
2022/01/07 04:44:54;;;;;;;6.90;2.87;;;;;;;-2.97;92.97;95645.88;6101251;23;20160;-79
2022/01/07 04:47:19;;;;;;;5.20;2.70;;;;;;;-2.91;93.03;95649.00;6101466;23;20172;-80
2022/01/07 04:49:44;;;;;;;5.47;2.80;;;;;;;-2.83;92.87;95656.28;6101296;23;20533;-80
2022/01/07 04:52:09;;;;;;;5.37;2.20;;;;;;;-2.72;92.47;95655.84;6099909;23;20163;-80
2022/01/07 04:54:35;;;;;;;7.50;3.50;;;;;;;-2.69;92.47;95650.63;6100681;23;20413;-82
2022/01/07 04:57:00;;;;;;;14.07;5.90;;;;;;;-2.64;92.41;95653.81;6100359;23;20197;-80
2022/01/07 04:59:26;;;;;;;5.83;3.60;;;;;;;-2.60;92.37;95647.69;6100465;23;20164;-80
2022/01/07 05:01:51;;;;;;;7.10;3.30;;;;;;;-2.61;92.26;95648.59;6099790;23;20152;-80
2022/01/07 05:04:17;;;;;;;5.63;3.30;;;;;;;-2.62;92.73;95645.22;6100774;23;20157;-80
2022/01/07 05:06:45;;;;;;;4.17;3.20;;;;;;;-2.51;92.67;95643.94;6101049;23;20650;-79
2022/01/07 05:09:16;;;;;;;11.30;4.10;;;;;;;-2.48;92.56;95641.25;6101620;23;20189;-79
2022/01/07 05:11:43;;;;;;;7.83;3.57;;;;;;;-2.50;92.75;95636.22;6072418;23;20211;-79
2022/01/07 05:14:08;;;;;;;7.87;4.10;;;;;;;-2.50;92.75;95637.94;6071969;23;20196;-82
2022/01/07 05:16:33;;;;;;;8.23;3.70;;;;;;;-2.48;93.20;95633.59;6119030;23;20188;-82
2022/01/07 05:18:59;;;;;;;6.43;3.67;;;;;;;-2.50;93.07;95630.31;6096060;23;20168;-80
2022/01/07 05:21:24;;;;;;;6.73;3.70;;;;;;;-2.46;93.05;95627.59;6109909;23;20168;-79
2022/01/07 05:23:49;;;;;;;6.87;3.57;;;;;;;-2.52;93.47;95630.38;6122868;23;20162;-78
2022/01/07 05:26:15;;;;;;;6.53;3.37;;;;;;;-2.47;93.36;95628.47;6115671;23;20309;-80
2022/01/07 05:28:40;;;;;;;5.43;3.30;;;;;;;-2.41;93.20;95622.28;6101170;23;20286;-80
2022/01/07 05:31:05;;;;;;;8.33;3.57;;;;;;;-2.39;92.71;95625.56;6099946;23;20161;-81
2022/01/07 05:33:31;;;;;;;6.87;3.70;;;;;;;-2.42;93.20;95624.00;6101620;23;20164;-81
2022/01/07 05:35:56;;;;;;;5.73;3.60;;;;;;;-2.45;92.88;95623.31;6099957;23;20157;-81
2022/01/07 05:38:21;;;;;;;6.17;3.33;;;;;;;-2.43;93.01;95614.72;6100373;23;20191;-81
2022/01/07 05:40:47;;;;;;;9.80;4.13;;;;;;;-2.40;93.31;95622.22;6099721;23;20666;-82
2022/01/07 05:43:12;;;;;;;6.73;3.70;;;;;;;-2.47;93.34;95615.75;6099056;23;20164;-81
2022/01/07 05:45:37;;;;;;;8.97;3.67;;;;;;;-2.54;93.14;95604.22;6124123;23;20164;-80
2022/01/07 05:48:06;;;;;;;6.30;3.53;;;;;;;-2.58;93.14;95608.59;6101227;23;20187;-81
2022/01/07 05:50:31;;;;;;;6.83;4.30;;;;;;;-2.57;92.81;95615.31;6099285;23;20168;-82
2022/01/07 05:52:56;;;;;;;6.53;3.53;;;;;;;-2.64;92.49;95616.50;6098223;23;20165;-81
2022/01/07 05:55:21;;;;;;;7.33;3.70;;;;;;;-2.63;92.82;95609.69;6098619;23;20164;-80
2022/01/07 05:57:47;;;;;;;7.20;3.93;;;;;;;-2.75;92.90;95608.50;6098695;23;20183;-81
2022/01/07 06:00:12;;;;;;;6.43;4.07;;;;;;;-2.73;93.66;95611.81;6100156;23;20165;-81
2022/01/07 06:02:38;;;;;;;4.70;3.80;;;;;;;-2.71;93.21;95615.09;6097261;23;20236;-81
2022/01/07 06:05:04;;;;;;;6.37;3.70;;;;;;;-2.82;93.19;95617.28;6098246;23;20175;-81
2022/01/07 06:07:29;;;;;;;6.20;4.07;;;;;;;-2.83;93.20;95618.16;6098168;23;20176;-81
2022/01/07 06:09:54;;;;;;;6.87;4.63;;;;;;;-2.86;93.90;95611.50;6098353;23;20615;-81
2022/01/07 06:12:20;;;;;;;11.37;4.50;;;;;;;-2.99;94.00;95622.25;6097012;23;20168;-80
2022/01/07 06:14:45;;;;;;;13.67;4.63;;;;;;;-3.00;94.88;95613.81;6121857;23;20157;-80
2022/01/07 06:17:11;;;;;;;9.97;4.67;;;;;;;-3.06;94.88;95603.06;6095502;23;20200;-81
2022/01/07 06:19:37;;;;;;;7.40;4.70;;;;;;;-3.05;95.21;95600.47;6099095;23;20199;-80
2022/01/07 06:22:03;;;;;;;6.00;4.93;;;;;;;-3.14;95.53;95598.31;6096065;23;20523;-80
2022/01/07 06:24:28;;;;;;;8.73;4.93;;;;;;;-3.01;95.00;95598.59;6097540;23;20625;-81
2022/01/07 06:26:54;;;;;;;9.93;4.93;;;;;;;-2.95;94.57;95600.91;6096955;23;20188;-80
2022/01/07 06:29:19;;;;;;;8.10;5.13;;;;;;;-2.98;94.32;95590.88;6096574;23;20160;-80
2022/01/07 06:31:44;;;;;;;9.70;5.13;;;;;;;-3.04;94.44;95586.88;6096816;23;20157;-80
2022/01/07 06:34:09;;;;;;;9.33;5.20;;;;;;;-3.09;94.96;95587.94;6096934;23;20260;-80
2022/01/07 06:36:35;;;;;;;8.83;5.70;;;;;;;-3.06;94.67;95592.91;6120604;23;20614;-80
2022/01/07 06:39:00;;;;;;;11.60;5.60;;;;;;;-3.03;94.78;95587.69;6097278;23;20202;-81
2022/01/07 06:41:26;;;;;;;7.30;5.67;;;;;;;-3.06;94.46;95586.13;6072012;23;20157;-80
2022/01/07 06:43:51;;;;;;;8.30;4.93;;;;;;;-3.19;95.11;95583.25;6096978;23;20618;-81
2022/01/07 06:46:16;;;;;;;8.80;5.90;;;;;;;-3.13;95.21;95582.19;6096996;23;20259;-81
2022/01/07 06:48:43;;;;;;;8.00;5.27;;;;;;;-3.17;95.01;95585.75;6100122;23;20189;-80
2022/01/07 06:51:08;;;;;;;7.80;5.27;;;;;;;-3.07;94.97;95581.09;6099990;23;20171;-80
2022/01/07 06:53:34;;;;;;;10.57;5.17;;;;;;;-3.14;94.30;95580.53;6098658;23;20176;-80
2022/01/07 06:56:00;;;;;;;7.23;5.20;;;;;;;-3.16;94.36;95580.59;6098878;23;20160;-81
2022/01/07 06:58:26;;;;;;;8.17;5.70;;;;;;;-3.18;94.91;95584.94;6098662;23;20226;-80
2022/01/07 07:00:51;;;;;;;8.43;5.20;;;;;;;-3.24;94.90;95579.28;6098430;23;20187;-81
2022/01/07 07:03:17;;;;;;;10.73;5.70;;;;;;;-3.21;95.00;95579.94;6096516;23;20157;-80
2022/01/07 07:05:42;;;;;;;12.30;5.83;;;;;;;-3.26;95.20;95576.78;6097622;23;20223;-81
2022/01/07 07:08:07;;;;;;;8.60;5.80;;;;;;;-3.19;95.23;95579.88;6074303;23;20180;-80
2022/01/07 07:10:33;;;;;;;7.83;5.37;;;;;;;-3.20;95.02;95573.97;6098476;23;20183;-80
2022/01/07 07:12:58;;;;;;;8.37;5.13;;;;;;;-3.24;95.11;95564.84;6097437;23;20156;-81
2022/01/07 07:15:23;;;;;;;8.07;5.23;;;;;;;-3.31;95.07;95558.38;6097975;23;20160;-80
2022/01/07 07:17:49;;;;;;;11.47;5.70;;;;;;;-3.27;94.70;95562.44;6073295;23;20699;-81
2022/01/07 07:20:14;;;;;;;9.10;4.80;;;;;;;-3.23;94.55;95563.13;6099065;23;20157;-80
2022/01/07 07:22:40;;;;;;;8.53;5.00;;;;;;;-3.23;95.01;95561.41;6071208;23;20499;-80
2022/01/07 07:25:05;;;;;;;6.83;4.63;;;;;;;-3.23;94.64;95560.59;6097254;23;20161;-81
2022/01/07 07:27:30;;;;;;;7.30;4.77;;;;;;;-3.31;94.83;95558.38;6097451;23;20212;-80
2022/01/07 07:29:56;;;;;;;8.63;4.60;;;;;;;-3.26;94.80;95560.72;6097229;23;20160;-81
2022/01/07 07:32:26;;;;;;;8.33;5.57;;;;;;;-3.23;94.32;95553.81;6119886;23;20165;-81
2022/01/07 07:37:22;;;;;;;8.97;5.50;;;;;;;-3.27;94.17;95554.84;6097744;23;20180;-81
2022/01/07 07:39:48;;;;;;;10.10;5.80;;;;;;;-3.26;94.73;95543.78;6071946;23;20157;-80
2022/01/07 07:42:13;;;;;;;8.00;4.70;;;;;;;-3.24;94.94;95544.53;6095600;23;20165;-81
2022/01/07 07:44:38;;;;;;;8.70;5.50;;;;;;;-3.13;94.28;95547.44;6096742;23;20160;-81
2022/01/07 07:47:04;;;;;;;10.87;6.30;;;;;;;-3.22;94.36;95545.28;6097027;23;20184;-81
2022/01/07 07:49:29;;;;;;;16.57;10.70;;;;;;;-3.11;94.56;95549.09;6097769;23;20192;-80
2022/01/07 07:51:54;;;;;;;13.17;8.70;;;;;;;-3.10;94.63;95546.47;6095816;23;20160;-79
2022/01/07 07:54:20;;;;;;;9.30;6.00;;;;;;;-3.03;94.55;95540.25;6096350;23;20161;-81
2022/01/07 07:56:45;;;;;;;9.63;5.73;;;;;;;-2.99;94.14;95544.31;6098573;23;20172;-80
2022/01/07 07:59:11;;;;;;;9.97;4.80;;;;;;;-2.95;93.81;95539.91;6096095;23;20177;-81
2022/01/07 08:01:36;;;;;;;7.90;4.90;;;;;;;-3.06;94.50;95542.09;6094968;23;20160;-81
2022/01/07 08:04:03;;;;;;;8.90;5.83;;;;;;;-2.93;94.51;95541.50;6095094;23;20160;-80
2022/01/07 08:06:29;;;;;;;8.17;5.13;;;;;;;-2.90;94.20;95538.00;6096068;23;20264;-81
2022/01/07 08:08:54;;;;;;;7.73;4.97;;;;;;;-2.87;94.21;95532.78;6095438;23;20192;-80
2022/01/07 08:11:22;;;;;;;9.60;6.37;;;;;;;-2.92;94.39;95529.59;6095321;23;20163;-81
2022/01/07 08:16:31;;;;;;;9.17;5.20;;;;;;;-2.84;94.05;95527.56;6096801;23;20264;-80
2022/01/07 08:18:57;;;;;;;9.03;5.77;;;;;;;-2.87;94.21;95527.72;6096305;23;20192;-81
2022/01/07 08:21:26;;;;;;;8.10;5.50;;;;;;;-2.77;94.21;95528.13;6095758;23;20196;-80
2022/01/07 08:23:53;;;;;;;10.43;5.17;;;;;;;-2.78;94.26;95524.75;6096611;23;20195;-78
2022/01/07 08:26:19;;;;;;;9.13;5.50;;;;;;;-2.88;94.97;95515.91;6096018;23;20251;-80
2022/01/07 08:28:56;;;;;;;8.37;6.10;;;;;;;-2.92;94.58;95520.28;6071099;23;20180;-79
2022/01/07 08:36:34;;;;;;;12.60;7.13;;;;;;;-2.71;94.35;95531.22;6122226;23;20192;-80
2022/01/07 08:39:00;;;;;;;10.27;6.30;;;;;;;-2.67;94.24;95531.91;6102287;23;20180;-80
2022/01/07 08:41:28;;;;;;;10.43;5.60;;;;;;;-2.72;94.38;95531.28;6095650;23;20682;-80
2022/01/07 08:43:53;;;;;;;8.73;5.13;;;;;;;-2.63;94.03;95520.72;6096902;23;20152;-80
2022/01/07 08:46:19;;;;;;;11.77;5.77;;;;;;;-2.53;93.86;95521.13;6096721;23;20181;-81
2022/01/07 08:48:44;;;;;;;6.23;4.63;;;;;;;-2.47;93.71;95513.19;6097238;23;20153;-80
2022/01/07 08:51:09;;;;;;;10.83;5.57;;;;;;;-2.40;92.98;95515.41;6096188;23;20149;-81
2022/01/07 08:53:35;;;;;;;9.50;5.60;;;;;;;-2.33;92.92;95513.41;6096629;23;20163;-80
2022/01/07 08:56:01;;;;;;;12.10;6.27;;;;;;;-2.32;92.78;95504.88;6097482;23;20161;-81
2022/01/07 08:58:26;;;;;;;9.33;6.10;;;;;;;-2.28;93.11;95501.31;6095522;23;20178;-79
2022/01/07 09:00:52;;;;;;;7.23;4.83;;;;;;;-2.35;92.95;95500.75;6071795;23;20153;-79
2022/01/07 09:03:20;;;;;;;11.60;5.33;;;;;;;-2.25;93.37;95495.25;6118443;23;20156;-80
2022/01/07 09:05:45;;;;;;;8.77;5.40;;;;;;;-2.31;93.36;95492.06;6095316;23;20189;-80
2022/01/07 09:08:12;;;;;;;10.13;5.27;;;;;;;-2.14;93.04;95485.38;6097462;23;20179;-79
2022/01/07 09:10:40;;;;;;;6.87;5.20;;;;;;;-2.01;92.51;95489.00;6095103;23;20220;-80
2022/01/07 09:13:05;;;;;;;9.83;5.03;;;;;;;-1.94;92.07;95497.16;6094585;23;20156;-81
2022/01/07 09:15:31;;;;;;;9.00;4.93;;;;;;;-1.98;92.21;95495.66;6095269;23;20181;-80
2022/01/07 09:17:56;;;;;;;10.40;4.90;;;;;;;-1.82;91.60;95494.03;6071689;23;20274;-79
2022/01/07 09:20:22;;;;;;;5.57;4.70;;;;;;;-1.88;91.79;95501.94;6071694;23;20157;-80
2022/01/07 09:22:48;;;;;;;7.77;5.13;;;;;;;-2.07;92.22;95497.75;6070990;23;20164;-80
2022/01/07 09:25:14;;;;;;;8.07;4.87;;;;;;;-1.97;92.23;95493.03;6097434;23;20153;-80
2022/01/07 09:27:42;;;;;;;13.10;5.20;;;;;;;-1.85;92.23;95499.28;6071785;23;20173;-80
2022/01/07 09:30:11;;;;;;;9.37;5.00;;;;;;;-1.86;91.97;95495.06;6095802;23;20165;-80
2022/01/07 09:32:38;;;;;;;7.37;4.60;;;;;;;-1.92;91.57;95495.38;6096115;23;20640;-81
2022/01/07 09:35:04;;;;;;;9.83;4.70;;;;;;;-1.81;91.73;95493.13;6095936;23;20156;-80
2022/01/07 09:37:30;;;;;;;7.37;5.30;;;;;;;-1.75;91.56;95491.13;6095330;23;20287;-79
2022/01/07 09:39:55;;;;;;;9.30;5.77;;;;;;;-1.74;91.40;95497.03;6095702;23;20560;-80
2022/01/07 09:42:21;;;;;;;6.73;4.83;;;;;;;-1.67;91.31;95498.38;6095380;23;20525;-79
2022/01/07 09:44:47;;;;;;;6.00;4.70;;;;;;;-1.62;91.48;95495.59;6095014;23;20251;-79
2022/01/07 09:47:12;;;;;;;6.37;4.10;;;;;;;-1.73;91.71;95496.13;6094163;23;20181;-78
2022/01/07 09:49:39;;;;;;;6.87;4.40;;;;;;;-1.59;91.65;95493.75;6095285;23;20453;-80
2022/01/07 09:52:05;;;;;;;7.27;4.30;;;;;;;-1.60;91.82;95486.97;6070429;23;20165;-79
2022/01/07 09:54:33;;;;;;;7.77;4.73;;;;;;;-1.57;91.51;95489.38;6091161;23;20173;-80
2022/01/07 09:56:58;;;;;;;6.57;4.27;;;;;;;-1.50;91.13;95479.72;6089769;23;20177;-79
2022/01/07 09:59:23;;;;;;;9.17;5.00;;;;;;;-1.39;91.07;95474.09;6092106;23;20189;-78
2022/01/07 10:02:02;;;;;;;8.60;4.47;;;;;;;-1.31;91.16;95477.06;6091591;23;20162;-79
2022/01/07 10:04:31;;;;;;;6.93;4.70;;;;;;;-1.47;92.04;95475.28;6091166;23;20151;-79
2022/01/07 10:07:17;;;;;;;9.67;6.17;;;;;;;-1.34;90.82;95475.50;6090651;23;20508;-80
2022/01/07 10:10:08;;;;;;;8.03;5.30;;;;;;;-1.47;91.35;95474.47;6092429;23;20652;-80
2022/01/07 10:12:49;;;;;;;7.60;5.23;;;;;;;-1.45;91.55;95472.66;6093230;23;20161;-79
2022/01/07 10:15:16;;;;;;;9.47;4.97;;;;;;;-1.59;92.00;95469.97;6094295;23;20160;-80
2022/01/07 10:18:01;;;;;;;9.23;4.73;;;;;;;-1.47;92.19;95471.94;6094746;23;20211;-80
2022/01/07 10:20:29;;;;;;;7.50;5.07;;;;;;;-1.59;92.70;95465.72;6096438;23;20205;-79
2022/01/07 10:22:59;;;;;;;6.83;4.97;;;;;;;-1.73;93.83;95473.22;6093797;23;20888;-79
2022/01/07 10:25:29;;;;;;;9.27;5.70;;;;;;;-1.72;93.59;95459.59;6096750;23;20563;-80
2022/01/07 10:28:05;;;;;;;9.37;5.00;;;;;;;-1.76;94.02;95456.38;6096287;23;20177;-81
2022/01/07 10:30:47;;;;;;;7.40;4.77;;;;;;;-1.73;94.07;95450.31;6096579;23;20148;-79
2022/01/07 10:33:34;;;;;;;10.37;5.73;;;;;;;-1.58;94.24;95446.19;6094917;23;20593;-80
2022/01/07 10:36:06;;;;;;;8.53;4.97;;;;;;;-1.49;94.13;95436.34;6096344;23;20141;-79
2022/01/07 10:38:32;;;;;;;7.87;5.43;;;;;;;-1.47;94.19;95442.19;6096234;23;20271;-79
2022/01/07 10:41:04;;;;;;;11.00;5.57;;;;;;;-1.50;94.29;95434.72;6096505;23;20255;-79
2022/01/07 10:43:34;;;;;;;6.73;5.07;;;;;;;-1.43;94.34;95430.09;6095902;23;20141;-79
2022/01/07 10:46:00;;;;;;;9.23;5.10;;;;;;;-1.30;93.39;95431.13;6096353;23;20161;-80
2022/01/07 10:48:47;;;;;;;7.97;5.33;;;;;;;-1.23;94.16;95431.66;6097657;23;20157;-81
2022/01/07 10:51:22;;;;;;;8.00;4.67;;;;;;;-1.30;94.60;95427.78;6095553;23;20491;-80
2022/01/07 10:53:52;;;;;;;8.63;5.03;;;;;;;-1.23;94.78;95426.56;6096212;23;20225;-80
2022/01/07 10:56:19;;;;;;;9.20;4.90;;;;;;;-1.08;94.52;95414.72;6095511;23;20176;-80
2022/01/07 10:58:44;;;;;;;7.87;4.83;;;;;;;-1.16;94.61;95415.94;6096139;23;20193;-80
2022/01/07 11:01:18;;;;;;;9.83;5.30;;;;;;;-0.98;94.33;95416.69;6095666;23;20179;-82
2022/01/07 11:03:44;;;;;;;8.50;5.03;;;;;;;-0.88;93.74;95417.06;6096012;23;20157;-80
2022/01/07 11:06:09;;;;;;;7.33;5.23;;;;;;;-0.84;93.96;95423.63;6070710;23;20322;-80
2022/01/07 11:08:35;;;;;;;7.33;4.47;;;;;;;-0.86;93.54;95422.91;6120695;23;20158;-79
2022/01/07 11:11:00;;;;;;;8.03;5.00;;;;;;;-0.71;93.49;95413.56;6095824;23;20166;-80
2022/01/07 11:13:25;;;;;;;10.27;5.60;;;;;;;-0.46;92.46;95408.78;6095496;23;20160;-81
2022/01/07 11:15:51;;;;;;;8.40;5.10;;;;;;;-0.40;91.79;95413.56;6096050;23;20186;-82
2022/01/07 11:18:16;;;;;;;6.93;4.60;;;;;;;-0.36;92.18;95409.91;6096001;23;20605;-80
2022/01/07 11:20:41;;;;;;;10.87;5.47;;;;;;;-0.40;91.72;95410.19;6095684;23;20161;-82
2022/01/07 11:23:07;;;;;;;7.73;4.37;;;;;;;-0.52;91.57;95403.22;6095605;23;20250;-79
2022/01/07 11:25:32;;;;;;;7.13;5.17;;;;;;;-0.52;92.66;95401.50;6071986;23;20170;-80
2022/01/07 11:28:00;;;;;;;10.27;4.83;;;;;;;-0.55;92.46;95401.66;6095289;23;20180;-80
2022/01/07 11:30:29;;;;;;;6.53;4.50;;;;;;;-0.24;91.63;95394.84;6095887;23;20165;-79
2022/01/07 11:32:55;;;;;;;9.83;5.07;;;;;;;-0.47;92.29;95391.03;6095024;23;20155;-80
2022/01/07 11:35:20;;;;;;;5.50;4.60;;;;;;;-0.30;91.54;95391.72;6095180;23;20159;-80
2022/01/07 11:37:58;;;;;;;9.77;4.77;;;;;;;-0.33;91.88;95389.34;6095283;23;20235;-80
2022/01/07 11:40:32;;;;;;;9.77;5.73;;;;;;;-0.33;91.82;95393.66;6095498;23;20159;-80
2022/01/07 11:43:04;;;;;;;8.90;5.27;;;;;;;-0.48;92.23;95390.19;6094809;23;20494;-80
2022/01/07 11:45:31;;;;;;;8.63;5.03;;;;;;;-0.60;92.94;95393.44;6100091;23;20246;-82
2022/01/07 11:48:23;;;;;;;9.63;4.90;;;;;;;-0.56;93.84;95392.34;6111635;23;20175;-80
2022/01/07 11:50:55;;;;;;;44.07;22.67;;;;;;;-0.46;93.14;95387.56;6108447;23;20155;-81
2022/01/07 11:53:21;;;;;;;28.60;17.97;;;;;;;-0.53;93.40;95384.56;6095538;23;20500;-81
2022/01/07 11:55:46;;;;;;;14.97;8.10;;;;;;;-0.41;93.53;95386.41;6120659;23;20167;-82
2022/01/07 11:58:13;;;;;;;13.17;8.27;;;;;;;-0.42;93.24;95387.31;6096057;23;20250;-81
2022/01/07 12:00:59;;;;;;;15.63;9.57;;;;;;;-0.33;93.58;95383.44;6096141;23;20167;-80
2022/01/07 12:03:45;;;;;;;9.57;6.00;;;;;;;-0.26;92.93;95386.47;6117761;23;20472;-80
2022/01/07 12:06:17;;;;;;;9.50;5.70;;;;;;;-0.31;92.87;95387.53;6096347;23;20345;-81
2022/01/07 12:09:03;;;;;;;10.67;6.83;;;;;;;-0.33;93.56;95391.91;6095804;23;20181;-81
2022/01/07 12:11:37;;;;;;;10.60;7.40;;;;;;;-0.54;94.11;95380.31;6119392;23;20167;-80
2022/01/07 12:14:10;;;;;;;7.40;5.17;;;;;;;-0.49;94.50;95383.47;6095089;23;20170;-80
2022/01/07 12:16:36;;;;;;;8.47;5.20;;;;;;;-0.43;94.29;95380.56;6097271;23;20179;-80
2022/01/07 12:19:21;;;;;;;7.80;4.70;;;;;;;-0.36;94.60;95379.31;6096246;23;20520;-82
2022/01/07 12:21:48;;;;;;;11.93;4.83;;;;;;;-0.22;93.91;95367.50;6094530;23;20930;-80
2022/01/07 12:24:16;;;;;;;7.43;4.77;;;;;;;-0.11;94.08;95367.72;6067601;23;20163;-81
2022/01/07 12:26:41;;;;;;;7.63;4.60;;;;;;;-0.12;93.79;95364.34;6094341;23;20238;-81
2022/01/07 12:29:17;;;;;;;5.00;4.00;;;;;;;0.02;93.41;95367.84;6092963;23;20161;-80
2022/01/07 12:31:54;;;;;;;6.70;4.27;;;;;;;0.07;92.66;95359.00;6068689;23;20261;-81
2022/01/07 12:34:27;;;;;;;10.53;5.33;;;;;;;0.14;93.09;95355.19;6091317;23;20171;-81
2022/01/07 12:37:05;;;;;;;6.10;4.53;;;;;;;0.09;93.02;95349.53;6093239;23;20187;-80
2022/01/07 12:39:35;;;;;;;8.10;5.03;;;;;;;0.15;93.03;95356.81;6092943;23;20930;-82
2022/01/07 12:42:01;;;;;;;7.90;6.13;;;;;;;0.05;93.04;95353.16;6090698;23;20226;-81
2022/01/07 12:44:34;;;;;;;12.87;8.77;;;;;;;0.07;93.38;95353.06;6091297;23;20246;-81
2022/01/07 12:46:59;;;;;;;8.43;5.17;;;;;;;0.01;93.39;95350.91;6095256;23;20218;-82